Latest Weather Observations for Port Pirie Airport AWS

IDS60801

Issued at 9:21 am CDT Saturday 10 December 2022 (issued every 10 minutes, with the page automatically refreshed every 10 minutes)

About weather observations | Map of weather stations | Latest weather observations for SA | Other Formats
Station Details ID: 021139 Name: PORT PIRIE AERODROME AWS Lat: -33.24 Lon: 138.00 Height: 12.0 m
Data from the previous 72 hours. | See also: Recent months for locations in South Australia
Date/Time
CDT
Temp
°C
App
Temp
°C
Dew
Point
°C
Rel
Hum
%
Delta-T
°C
Wind Press
QNH
hPa
Press
MSL
hPa
Rain since
9am
mm
Dir  Spd
km/h
Gust
km/h
Spd
kts
Gust
kts
10/09:00am 27.8 21.6 4.2 22 12.0 N 26 32 14 17 1010.0 1010.0 0.0
10/08:30am 27.2 21.5 4.9 24 11.4 N 24 30 13 16 1010.2 1010.2 0.0
10/08:00am 27.0 23.1 5.3 25 11.1 N 15 19 8 10 1010.0 1010.0 0.0
10/07:30am 24.9 20.8 4.1 26 10.3 NNE 15 20 8 11 1009.4 1009.4 0.0
10/07:00am 24.4 20.2 3.7 26 10.2 NNE 15 20 8 11 1009.2 1009.2 0.0
10/06:30am 23.4 18.4 3.4 27 9.7 N 19 24 10 13 1009.4 1009.4 0.0
10/06:00am 23.4 18.2 3.4 27 9.7 N 20 28 11 15 1009.2 1009.2 0.0
10/05:30am 24.1 18.0 2.9 25 10.2 NNE 24 35 13 19 1009.1 1009.1 0.0
10/05:00am 24.0 18.8 3.3 26 10.1 NNE 20 24 11 13 1008.8 1008.8 0.0
10/04:30am 23.8 17.8 3.2 26 10.0 NNE 24 32 13 17 1008.7 1008.7 0.0
10/04:00am 24.0 18.8 3.3 26 10.1 NNE 20 33 11 18 1008.7 1008.7 0.0
10/03:30am 24.0 17.6 3.3 26 10.1 NNE 26 35 14 19 1008.8 1008.8 0.0
10/03:00am 24.1 17.6 2.9 25 10.2 NNE 26 35 14 19 1009.0 1009.0 0.0
10/02:30am 24.3 18.7 3.6 26 10.1 NE 22 32 12 17 1009.0 1009.0 0.0
10/02:00am 24.3 19.1 3.6 26 10.1 NE 20 30 11 16 1009.5 1009.5 0.0
10/01:30am 24.4 18.7 3.1 25 10.4 NE 22 32 12 17 1009.8 1009.8 0.0
10/01:00am 24.3 19.1 3.6 26 10.1 NE 20 30 11 16 1010.1 1010.1 0.0
10/12:30am 24.4 19.8 3.7 26 10.2 NE 17 24 9 13 1010.3 1010.3 0.0
10/12:00am 24.5 19.5 3.8 26 10.2 NE 19 26 10 14 1010.5 1010.5 0.0
 
Date/Time
CDT
Temp
°C
App
Temp
°C
Dew
Point
°C
Rel
Hum
%
Delta-T
°C
Wind Press
QNH
hPa
Press
MSL
hPa
Rain since
9am
mm
Dir  Spd
km/h
Gust
km/h
Spd
kts
Gust
kts
09/11:30pm 24.8 18.5 4.0 26 10.3 NE 26 35 14 19 1010.5 1010.5 0.0
09/11:00pm 22.3 18.5 5.7 34 8.3 ENE 15 20 8 11 1010.8 1010.8 0.0
09/10:30pm 22.4 17.7 6.2 35 8.2 E 20 24 11 13 1010.8 1010.8 0.0
09/10:00pm 21.2 17.9 6.3 38 7.5 ESE 13 17 7 9 1010.7 1010.7 0.0
09/09:30pm 22.4 19.0 5.8 34 8.4 E 13 15 7 8 1010.8 1010.8 0.0
09/09:00pm 23.6 19.5 6.0 32 9.0 SE 17 19 9 10 1010.5 1010.5 0.0
09/08:30pm 25.2 21.8 5.9 29 9.9 SE 13 17 7 9 1010.4 1010.4 0.0
09/08:00pm 27.9 24.4 5.5 24 11.6 SE 13 15 7 8 1010.3 1010.3 0.0
09/07:30pm 29.1 26.3 5.2 22 12.4 SSE 9 15 5 8 1010.2 1010.2 0.0
09/07:00pm 29.6 27.5 5.6 22 12.6 S 6 7 3 4 1010.0 1010.0 0.0
09/06:30pm 30.1 27.9 5.4 21 13.0 SSW 6 11 3 6 1010.1 1010.1 0.0
09/06:00pm 30.1 27.4 5.4 21 13.0 S 9 17 5 9 1010.1 1010.1 0.0
09/05:30pm 30.1 27.2 4.7 20 13.2 SW 9 15 5 8 1010.4 1010.4 0.0
09/05:00pm 29.5 25.6 3.5 19 13.1 WSW 13 17 7 9 1010.6 1010.6 0.0
09/04:30pm 29.8 26.6 2.9 18 13.5 WSW 9 20 5 11 1011.0 1011.0 0.0
09/04:00pm 28.9 25.2 2.2 18 13.1 WNW 11 20 6 11 1011.5 1011.5 0.0
09/03:30pm 28.7 24.7 2.8 19 12.9 NW 13 20 7 11 1011.8 1011.8 0.0
09/03:00pm 29.5 25.4 4.2 20 13.0 NW 15 26 8 14 1012.2 1012.2 0.0
09/02:30pm 28.4 24.7 4.6 22 12.2 NNW 13 22 7 12 1012.3 1012.3 0.0
09/02:00pm 27.6 23.4 4.0 22 11.9 N 15 26 8 14 1012.7 1012.7 0.0
09/01:30pm 26.7 22.5 3.9 23 11.4 NNW 15 28 8 15 1013.2 1013.2 0.0
09/01:00pm 26.9 22.8 4.6 24 11.3 N 15 24 8 13 1013.7 1013.7 0.0
09/12:30pm 26.7 23.1 5.1 25 11.0 NNW 13 32 7 17 1014.1 1014.1 0.0
09/12:00pm 25.2 21.5 4.3 26 10.4 N 13 20 7 11 1014.5 1014.5 0.0
09/11:30am 24.4 21.1 4.7 28 9.8 NW 11 19 6 10 1014.6 1014.6 0.0
09/11:00am 23.3 19.7 4.8 30 9.2 N 13 20 7 11 1014.6 1014.6 0.0
09/10:30am 23.0 19.5 5.4 32 8.8 ENE 13 20 7 11 1014.9 1014.9 0.0
09/10:00am 21.2 18.6 5.9 37 7.7 NE 9 13 5 7 1015.3 1015.3 0.0
09/09:30am 20.1 16.2 5.4 38 7.2 ESE 15 20 8 11 1015.7 1015.7 0.0
09/09:00am 18.8 15.4 6.0 43 6.3 ESE 13 17 7 9 1015.9 1015.9 0.0
09/08:30am 18.0 16.1 7.7 51 5.2 S 7 9 4 5 1016.5 1016.5 0.0
09/08:00am 18.3 15.8 4.5 40 6.6 ESE 7 15 4 8 1016.4 1016.4 0.0
09/07:56am 18.4 15.0 4.2 39 6.7 E 11 17 6 9 1016.0 1016.0 0.0
09/07:30am 18.1 12.7 4.3 40 6.5 ENE 22 28 12 15 1014.0 1014.0 0.0
09/07:00am 17.8 13.0 5.4 44 6.0 E 20 26 11 14 1013.4 1013.4 0.0
09/06:30am 16.8 13.3 7.4 54 4.7 SE 15 17 8 9 1013.8 1013.8 0.0
09/06:00am 15.8 12.6 8.5 62 3.7 SSE 15 19 8 10 1013.7 1013.7 0.0
09/05:30am 16.2 13.9 7.4 56 4.4 SSE 9 13 5 7 1013.1 1013.1 0.0
09/05:00am 16.1 13.8 7.3 56 4.4 SE 9 13 5 7 1012.4 1012.4 0.0
09/04:30am 15.3 13.5 9.4 68 3.0 SW 9 11 5 6 1012.2 1012.2 0.0
09/04:00am 15.9 13.6 9.1 64 3.5 ENE 11 13 6 7 1011.2 1011.2 0.0
09/03:30am 16.4 13.6 8.4 59 4.1 ENE 13 17 7 9 1012.1 1012.1 0.0
09/03:23am 16.7 13.0 7.9 56 4.4 E 17 17 9 9 1011.8 1011.8 0.0
09/03:00am 16.7 13.4 6.5 51 5.0 SE 13 17 7 9 1013.8 1013.8 0.0
09/02:30am 16.1 12.5 6.8 54 4.6 SSE 15 19 8 10 1014.5 1014.5 0.0
09/02:00am 16.1 11.7 6.5 53 4.7 SSE 19 24 10 13 1014.9 1014.9 0.0
09/01:30am 15.6 11.3 7.1 57 4.2 SE 19 24 10 13 1014.7 1014.7 0.0
09/01:00am 15.3 10.6 7.6 60 3.8 SE 22 28 12 15 1015.2 1015.2 0.0
09/12:30am 15.3 11.7 8.5 64 3.4 SE 17 22 9 12 1015.6 1015.6 0.0
09/12:00am 15.1 12.0 8.8 66 3.2 SSE 15 17 8 9 1015.8 1015.8 0.0
 
Date/Time
CDT
Temp
°C
App
Temp
°C
Dew
Point
°C
Rel
Hum
%
Delta-T
°C
Wind Press
QNH
hPa
Press
MSL
hPa
Rain since
9am
mm
Dir  Spd
km/h
Gust
km/h
Spd
kts
Gust
kts
08/11:30pm 14.9 11.8 8.8 67 3.1 SE 15 17 8 9 1016.2 1016.2 0.0
08/11:00pm 14.7 12.2 8.4 66 3.2 SSE 11 13 6 7 1016.7 1016.7 0.0
08/10:30pm 15.8 12.7 8.8 63 3.6 SSE 15 19 8 10 1016.6 1016.6 0.0
08/10:00pm 16.4 11.9 8.6 60 4.0 SSE 22 28 12 15 1016.1 1016.1 0.0
08/09:30pm 16.8 11.4 8.2 57 4.4 S 26 35 14 19 1016.1 1016.1 0.0
08/09:00pm 17.4 11.5 7.7 53 4.9 S 28 33 15 18 1015.9 1015.9 0.0
08/08:30pm 18.2 12.6 7.3 49 5.5 S 26 33 14 18 1015.9 1015.9 0.0
08/08:00pm 19.6 12.6 6.7 43 6.5 S 33 41 18 22 1015.5 1015.5 0.0
08/07:30pm 21.4 13.9 6.5 38 7.5 SSW 35 43 19 23 1015.0 1015.0 0.0
08/07:00pm 21.9 15.1 9.4 45 6.7 SW 35 43 19 23 1014.7 1014.7 0.0
08/06:30pm 21.8 15.0 9.3 45 6.7 SW 35 41 19 22 1014.2 1014.2 0.0
08/06:00pm 21.7 14.7 9.9 47 6.4 SW 37 46 20 25 1014.1 1014.1 0.0
08/05:30pm 22.3 14.6 8.8 42 7.2 SW 39 46 21 25 1014.2 1014.2 0.0
08/05:00pm 23.5 16.5 9.9 42 7.4 SW 37 46 20 25 1014.3 1014.3 0.0
08/04:30pm 23.2 16.1 9.6 42 7.4 SW 37 44 20 24 1014.6 1014.6 0.0
08/04:00pm 23.6 19.4 8.1 37 8.2 SSE 20 37 11 20 1014.8 1014.8 0.0
08/03:30pm 24.5 18.2 1.4 22 10.9 SE 24 35 13 19 1015.2 1015.2 0.0
08/03:00pm 24.9 19.6 3.0 24 10.6 SSE 20 28 11 15 1015.5 1015.5 0.0
08/02:30pm 23.6 17.7 1.9 24 10.2 SSE 22 41 12 22 1015.8 1015.8 0.0
08/02:00pm 23.3 16.8 2.7 26 9.8 SE 26 37 14 20 1016.3 1016.3 0.0
08/01:30pm 22.3 16.1 2.4 27 9.4 SSE 24 33 13 18 1017.1 1017.0 0.0
08/01:00pm 21.4 16.0 2.6 29 8.8 SE 20 32 11 17 1017.5 1017.4 0.0
08/12:30pm 21.7 16.0 2.9 29 8.9 SE 22 35 12 19 1018.2 1018.1 0.0
08/12:00pm 21.1 15.1 3.3 31 8.4 SSE 24 32 13 17 1018.2 1018.1 0.0
08/11:30am 21.8 16.4 4.4 32 8.5 SE 22 30 12 16 1018.2 1018.1 0.0
08/11:00am 19.3 13.6 2.6 33 7.7 SE 22 35 12 19 1018.6 1018.5 0.0
08/10:31am 19.4 12.7 3.6 35 7.5 SSE 28 48 15 26 1018.6 1018.5 0.0
08/10:30am 18.9 12.1 3.1 35 7.3 SSE 28 37 15 20 1018.8 1018.7 0.0
08/10:00am 17.7 10.0 2.5 36 6.9 SE 32 41 17 22 1018.9 1018.8 0.0
08/09:30am 16.6 10.8 4.3 44 5.8 SE 24 33 13 18 1019.1 1019.0 0.0
08/09:00am 16.3 9.7 4.4 45 5.6 SE 28 35 15 19 1019.3 1019.2 0.0
08/08:30am 14.5 8.7 4.5 51 4.6 SE 24 28 13 15 1019.2 1019.1 0.0
08/08:00am 13.4 7.6 4.6 55 4.0 SE 24 28 13 15 1019.0 1018.9 0.0
08/07:30am 11.8 7.1 5.0 63 3.1 SE 19 22 10 12 1018.7 1018.6 0.0
08/07:00am 9.7 6.7 5.9 77 1.7 SE 11 15 6 8 1018.5 1018.4 0.0
08/06:30am 8.0 4.0 5.1 82 1.3 SE 15 19 8 10 1017.8 1017.7 0.0
08/06:00am 6.5 2.4 4.5 87 0.9 SSE 15 19 8 10 1017.7 1017.6 0.0
08/05:30am 6.4 2.3 4.1 85 1.0 S 15 17 8 9 1017.8 1017.7 0.0
08/05:00am 6.5 2.8 4.5 87 0.9 SW 13 17 7 9 1017.5 1017.4 0.0
08/04:30am 7.3 4.4 4.8 84 1.1 SSE 9 11 5 6 1017.2 1017.1 0.0
08/04:00am 7.3 3.7 5.0 85 1.0 S 13 17 7 9 1017.0 1016.9 0.0
08/03:30am 7.7 4.1 5.2 84 1.1 SSE 13 15 7 8 1016.8 1016.8 0.0
08/03:00am 8.4 4.9 5.5 82 1.3 SSE 13 15 7 8 1016.8 1016.8 0.0
08/02:30am 8.5 4.7 6.0 84 1.1 S 15 19 8 10 1017.1 1017.0 0.0
08/02:00am 9.4 6.0 5.9 79 1.6 SE 13 15 7 8 1017.1 1017.0 0.0
08/01:30am 10.3 6.6 6.3 76 1.9 SSE 15 17 8 9 1017.2 1017.1 0.0
08/01:00am 11.2 7.5 6.5 73 2.2 SE 15 17 8 9 1017.4 1017.3 0.0
08/12:30am 12.0 8.1 6.9 71 2.4 SE 17 20 9 11 1017.4 1017.3 0.0
08/12:00am 12.5 8.7 7.6 72 2.4 SSE 17 20 9 11 1017.4 1017.3 0.0
 
Date/Time
CDT
Temp
°C
App
Temp
°C
Dew
Point
°C
Rel
Hum
%
Delta-T
°C
Wind Press
QNH
hPa
Press
MSL
hPa
Rain since
9am
mm
Dir  Spd
km/h
Gust
km/h
Spd
kts
Gust
kts
07/11:30pm 13.3 9.0 7.7 69 2.7 SSE 20 24 11 13 1017.4 1017.3 0.0
07/11:00pm 13.8 9.8 8.4 70 2.7 SSE 19 22 10 12 1017.3 1017.2 0.0
07/10:30pm 14.8 9.9 8.5 66 3.2 SSE 24 30 13 16 1017.0 1016.9 0.0
07/10:00pm 15.3 10.5 8.8 65 3.3 SSE 24 32 13 17 1016.5 1016.5 0.0
07/09:30pm 15.9 10.4 9.1 64 3.5 SSE 28 35 15 19 1015.8 1015.8 0.0
07/09:00pm 16.8 11.8 9.5 62 3.8 S 26 33 14 18 1015.3 1015.3 0.0
07/08:33pm 17.4 11.9 10.5 64 3.7 S 30 48 16 26 1014.9 1014.9 0.0
07/08:30pm 17.7 11.8 10.6 63 3.8 S 32 48 17 26 1014.8 1014.8 0.0
07/08:00pm 17.9 10.5 10.0 60 4.2 SSW 39 48 21 26 1014.4 1014.4 0.0
07/07:30pm 18.7 11.2 9.5 55 4.9 SSW 39 50 21 27 1014.0 1014.0 0.0
07/07:00pm 19.6 11.2 7.4 45 6.2 SSW 41 50 22 27 1013.5 1013.5 0.0
07/06:30pm 20.2 11.6 8.2 46 6.2 SSW 43 52 23 28 1013.0 1013.0 0.0
07/06:00pm 21.7 13.1 8.2 42 7.1 SSW 43 52 23 28 1012.6 1012.6 0.0
07/05:30pm 21.5 12.8 7.7 41 7.2 SSW 43 54 23 29 1012.6 1012.6 0.0
07/05:00pm 21.7 12.9 7.9 41 7.2 SSW 44 56 24 30 1012.5 1012.5 0.0
07/04:30pm 21.4 12.4 8.7 44 6.7 SW 46 59 25 32 1012.3 1012.3 0.0
07/04:00pm 22.2 13.4 9.4 44 6.9 SW 46 57 25 31 1012.1 1012.1 0.0
07/03:30pm 21.0 11.3 8.9 46 6.4 SW 50 61 27 33 1012.0 1012.0 0.0
07/03:00pm 21.7 12.6 8.6 43 6.9 SW 46 61 25 33 1012.0 1012.0 0.0
07/02:30pm 21.4 13.1 9.3 46 6.5 SW 43 54 23 29 1012.0 1012.0 0.0
07/02:00pm 21.7 13.5 9.6 46 6.5 SW 43 56 23 30 1012.0 1012.0 0.0
07/01:30pm 21.5 13.0 8.7 44 6.8 SW 43 50 23 27 1011.9 1011.9 0.0
07/01:00pm 21.8 13.8 9.0 44 6.8 SW 41 50 22 27 1011.9 1011.9 0.0
07/12:30pm 20.9 13.0 9.5 48 6.1 SW 41 50 22 27 1011.8 1011.8 0.0
07/12:00pm 21.3 14.0 10.2 49 6.0 SW 39 50 21 27 1011.7 1011.7 0.0
07/11:30am 21.5 15.5 12.1 55 5.3 SW 35 50 19 27 1011.8 1011.8 0.0
07/11:00am 20.1 13.3 10.5 54 5.2 SW 37 50 20 27 1011.6 1011.6 0.0
07/10:30am 20.0 14.4 11.5 58 4.7 SSW 32 44 17 24 1011.4 1011.4 0.0
07/10:00am 18.9 13.0 11.2 61 4.2 SSW 33 44 18 24 1011.3 1011.3 0.0
07/09:30am 18.3 12.6 11.1 63 3.9 S 32 43 17 23 1011.2 1011.2 0.0

Other formats

Comma delimited format used in spreadsheet applications
http://www.bom.gov.au/fwo/IDS60801/IDS60801.99749.axf

JavaScript Object Notation format (JSON) in row-major order
http://www.bom.gov.au/fwo/IDS60801/IDS60801.99749.json

Data quality

Most of these data are generated automatically and are frequently updated. Quality checks on data are not normally performed. It is possible for incorrect values to appear. Refer to information at About Latest Weather Observations and please check the disclaimer before using these data.